createdAt,value
2023-01-25T00:01:09.689Z,21.90
2023-01-25T00:03:40.616Z,23.95
2023-01-25T00:06:12.262Z,22.82
2023-01-25T00:08:42.936Z,23.15
2023-01-25T00:11:13.594Z,22.62
2023-01-25T00:13:44.261Z,25.82
2023-01-25T00:16:14.970Z,26.52
2023-01-25T00:18:45.778Z,27.32
2023-01-25T00:21:18.708Z,28.92
2023-01-25T00:23:49.785Z,28.15
2023-01-25T00:26:21.411Z,27.10
2023-01-25T00:28:52.986Z,27.77
2023-01-25T00:31:38.176Z,29.52
2023-01-25T00:34:30.982Z,29.98
2023-01-25T00:37:33.161Z,31.12
2023-01-25T00:40:03.972Z,26.10
2023-01-25T00:42:36.663Z,26.07
2023-01-25T00:45:08.306Z,26.97
2023-01-25T00:47:39.195Z,25.37
2023-01-25T00:50:11.235Z,24.85
2023-01-25T00:52:43.305Z,24.43
2023-01-25T00:55:14.069Z,24.10
2023-01-25T00:57:45.129Z,23.40
2023-01-25T01:00:16.657Z,24.23
2023-01-25T01:02:48.697Z,26.25
2023-01-25T01:05:22.794Z,25.00
2023-01-25T01:07:54.114Z,24.05
2023-01-25T01:10:28.020Z,25.25
2023-01-25T01:12:59.720Z,22.80
2023-01-25T01:15:31.014Z,22.87
2023-01-25T01:18:01.703Z,22.13
2023-01-25T01:20:33.186Z,21.68
2023-01-25T01:23:06.785Z,23.65
2023-01-25T01:25:37.949Z,23.65
2023-01-25T01:28:09.297Z,23.18
2023-01-25T01:30:40.675Z,24.43
2023-01-25T01:33:12.583Z,23.95
2023-01-25T01:35:46.859Z,22.55
2023-01-25T01:38:17.722Z,23.20
2023-01-25T01:40:49.393Z,22.77
2023-01-25T01:43:26.038Z,22.42
2023-01-25T01:46:01.972Z,22.98
2023-01-25T01:48:54.114Z,22.20
2023-01-25T01:51:46.607Z,21.10
2023-01-25T01:54:35.042Z,21.35
2023-01-25T01:57:08.243Z,18.65
2023-01-25T01:59:41.470Z,16.93
2023-01-25T02:02:13.568Z,18.77
2023-01-25T02:04:46.160Z,18.65
2023-01-25T02:07:24.903Z,18.23
2023-01-25T02:09:56.092Z,19.00
2023-01-25T02:12:27.131Z,19.27
2023-01-25T02:14:58.255Z,18.75
2023-01-25T02:20:28.239Z,19.12
2023-01-25T02:23:30.220Z,18.50
2023-01-25T02:26:06.100Z,18.80
2023-01-25T02:28:46.169Z,16.75
2023-01-25T02:31:17.793Z,17.40
2023-01-25T02:33:48.932Z,17.37
2023-01-25T02:36:25.722Z,17.98
2023-01-25T02:39:20.241Z,18.42
2023-01-25T02:41:50.941Z,17.80
2023-01-25T02:44:24.890Z,17.65
2023-01-25T02:46:56.383Z,18.35
2023-01-25T02:49:28.015Z,19.87
2023-01-25T02:51:59.421Z,18.50
2023-01-25T02:54:30.186Z,17.92
2023-01-25T02:57:01.196Z,18.82
2023-01-25T02:59:31.885Z,17.95
2023-01-25T03:02:03.366Z,18.15
2023-01-25T03:04:34.247Z,19.17
2023-01-25T03:07:05.337Z,19.15
2023-01-25T03:09:36.101Z,22.55
2023-01-25T03:12:07.303Z,19.05
2023-01-25T03:14:38.088Z,18.52
2023-01-25T03:17:09.392Z,20.88
2023-01-25T03:19:40.322Z,20.50
2023-01-25T03:22:12.075Z,20.90
2023-01-25T03:24:43.170Z,22.42
2023-01-25T03:27:15.437Z,22.93
2023-01-25T03:29:46.988Z,24.50
2023-01-25T03:32:17.796Z,25.05
2023-01-25T03:34:48.641Z,23.92
2023-01-25T03:37:19.919Z,24.02
2023-01-25T03:39:50.689Z,22.37
2023-01-25T03:42:23.396Z,21.82
2023-01-25T03:44:54.070Z,21.82
2023-01-25T03:47:24.851Z,21.30
2023-01-25T03:49:56.429Z,21.82
2023-01-25T03:52:30.311Z,20.70
2023-01-25T03:55:00.979Z,19.82
2023-01-25T03:57:32.301Z,19.82
2023-01-25T04:00:03.559Z,19.05
2023-01-25T04:02:34.751Z,19.82
2023-01-25T04:05:05.572Z,18.42
2023-01-25T04:07:42.953Z,20.37
2023-01-25T04:10:14.107Z,18.25
2023-01-25T04:12:44.903Z,18.40
2023-01-25T04:15:16.269Z,18.32
2023-01-25T04:17:49.834Z,17.12
2023-01-25T04:20:22.643Z,16.82
2023-01-25T04:22:53.985Z,17.45
2023-01-25T04:25:25.605Z,16.67
2023-01-25T04:27:56.501Z,16.42
2023-01-25T04:30:27.369Z,17.10
2023-01-25T04:32:58.118Z,17.48
2023-01-25T04:35:29.030Z,16.07
2023-01-25T04:38:00.901Z,16.45
2023-01-25T04:40:31.796Z,15.98
2023-01-25T04:43:02.484Z,14.53
2023-01-25T04:45:33.626Z,16.15
2023-01-25T04:48:06.333Z,15.05
2023-01-25T04:50:37.427Z,15.72
2023-01-25T04:53:09.450Z,15.20
2023-01-25T04:55:40.800Z,15.00
2023-01-25T04:58:12.079Z,14.33
2023-01-25T05:00:43.094Z,14.70
2023-01-25T05:03:14.386Z,14.55
2023-01-25T05:05:52.315Z,15.18
2023-01-25T05:08:23.663Z,14.80
2023-01-25T05:11:01.155Z,15.28
2023-01-25T05:13:31.855Z,14.33
2023-01-25T05:16:03.225Z,13.90
2023-01-25T05:18:47.466Z,15.48
2023-01-25T05:21:06.461Z,14.50
2023-01-25T05:23:37.465Z,15.32
2023-01-25T05:26:27.064Z,14.98
2023-01-25T05:28:58.109Z,14.40
2023-01-25T05:31:28.972Z,14.90
2023-01-25T05:34:03.162Z,14.05
2023-01-25T05:36:33.947Z,15.03
2023-01-25T05:39:04.812Z,13.88
2023-01-25T05:41:35.782Z,14.23
2023-01-25T05:44:06.677Z,14.38
2023-01-25T05:46:37.939Z,14.65
2023-01-25T05:49:09.068Z,14.75
2023-01-25T05:51:40.559Z,13.58
2023-01-25T05:54:14.129Z,14.78
2023-01-25T05:56:46.111Z,14.60
2023-01-25T05:59:18.411Z,14.35
2023-01-25T06:01:49.831Z,14.20
2023-01-25T06:04:21.205Z,14.35
2023-01-25T06:06:52.058Z,14.15
2023-01-25T06:09:24.038Z,14.23
2023-01-25T06:11:54.922Z,15.08
2023-01-25T06:14:25.667Z,14.73
2023-01-25T06:16:57.015Z,14.20
2023-01-25T06:19:27.806Z,14.70
2023-01-25T06:21:58.734Z,14.78
2023-01-25T06:24:29.846Z,14.07
2023-01-25T06:27:01.571Z,14.63
2023-01-25T06:29:32.289Z,13.18
2023-01-25T06:32:02.964Z,14.45
2023-01-25T06:34:34.767Z,14.95
2023-01-25T06:37:05.961Z,14.20
2023-01-25T06:39:37.031Z,13.88
2023-01-25T06:42:08.137Z,15.08
2023-01-25T06:44:38.927Z,13.18
2023-01-25T06:47:11.942Z,15.18
2023-01-25T06:49:43.259Z,14.53
2023-01-25T06:52:14.347Z,14.20
2023-01-25T06:54:45.332Z,14.13
2023-01-25T06:57:16.243Z,13.30
2023-01-25T06:59:47.012Z,13.88
2023-01-25T07:02:18.730Z,13.43
2023-01-25T07:04:49.722Z,13.95
2023-01-25T07:07:21.107Z,12.93
2023-01-25T07:09:52.172Z,14.07
2023-01-25T07:12:23.476Z,14.20
2023-01-25T07:14:54.376Z,15.38
2023-01-25T07:17:25.873Z,15.00
2023-01-25T07:19:56.696Z,15.15
2023-01-25T07:22:27.575Z,14.13
2023-01-25T07:25:00.146Z,14.13
2023-01-25T07:27:36.417Z,15.15
2023-01-25T07:30:08.609Z,15.58
2023-01-25T07:32:39.562Z,15.40
2023-01-25T07:35:11.458Z,13.68
2023-01-25T07:37:42.261Z,13.85
2023-01-25T07:40:14.583Z,13.15
2023-01-25T07:42:55.982Z,13.62
2023-01-25T07:45:33.545Z,14.95
2023-01-25T07:48:08.999Z,13.30
2023-01-25T07:50:40.744Z,12.82
2023-01-25T07:53:11.549Z,14.00
2023-01-25T07:55:43.025Z,13.08
2023-01-25T07:58:18.866Z,14.45
2023-01-25T08:00:52.658Z,14.17
2023-01-25T08:03:23.486Z,13.28
2023-01-25T08:06:00.751Z,13.18
2023-01-25T08:08:31.203Z,14.23
2023-01-25T08:11:01.960Z,12.98
2023-01-25T08:13:32.694Z,12.82
2023-01-25T08:16:03.794Z,13.50
2023-01-25T08:18:36.063Z,13.55
2023-01-25T08:21:07.910Z,14.43
2023-01-25T08:23:38.880Z,12.88
2023-01-25T08:26:11.774Z,13.70
2023-01-25T08:28:44.211Z,14.05
2023-01-25T08:31:20.533Z,13.70
2023-01-25T08:33:52.266Z,13.68
2023-01-25T08:36:25.207Z,13.70
2023-01-25T08:39:05.757Z,14.68
2023-01-25T08:41:37.827Z,14.35
2023-01-25T08:44:10.313Z,14.53
2023-01-25T08:46:44.726Z,14.13
2023-01-25T08:49:16.185Z,14.07
2023-01-25T08:51:48.404Z,14.47
2023-01-25T08:54:19.336Z,13.65
2023-01-25T08:56:51.014Z,14.43
2023-01-25T08:59:21.781Z,14.60
2023-01-25T09:01:52.908Z,14.07
2023-01-25T09:04:25.643Z,12.98
2023-01-25T09:06:57.072Z,13.43
2023-01-25T09:09:27.853Z,13.35
2023-01-25T09:11:59.031Z,13.75
2023-01-25T09:14:30.481Z,13.50
2023-01-25T09:17:01.406Z,13.65
2023-01-25T09:19:32.548Z,13.60
2023-01-25T09:22:04.515Z,13.72
2023-01-25T09:24:37.313Z,14.60
2023-01-25T09:27:08.247Z,14.00
2023-01-25T09:29:41.513Z,14.03
2023-01-25T09:32:12.106Z,15.13
2023-01-25T09:34:43.839Z,13.70
2023-01-25T09:37:15.149Z,14.50
2023-01-25T09:39:45.920Z,13.95
2023-01-25T09:42:38.325Z,15.05
2023-01-25T09:45:20.464Z,14.53
2023-01-25T09:48:00.392Z,13.72
2023-01-25T09:50:36.829Z,13.95
2023-01-25T09:53:26.028Z,13.80
2023-01-25T09:56:02.851Z,14.30
2023-01-25T10:01:19.678Z,12.98
2023-01-25T10:03:56.729Z,14.35
2023-01-25T10:06:30.486Z,14.33
2023-01-25T10:09:17.139Z,13.93
2023-01-25T10:11:43.092Z,13.95
2023-01-25T10:14:19.638Z,14.30
2023-01-25T10:16:53.110Z,14.30
2023-01-25T10:19:29.485Z,15.28
2023-01-25T10:22:20.392Z,14.58
2023-01-25T10:24:58.646Z,13.98
2023-01-25T10:27:58.314Z,14.45
2023-01-25T10:30:35.786Z,14.40
2023-01-25T10:33:13.071Z,14.35
2023-01-25T10:35:47.519Z,14.18
2023-01-25T10:38:29.793Z,14.50
2023-01-25T10:41:03.371Z,13.50
2023-01-25T10:43:34.205Z,14.15
2023-01-25T10:46:05.431Z,15.13
2023-01-25T10:48:38.822Z,14.10
2023-01-25T10:51:14.464Z,14.93
2023-01-25T10:53:45.825Z,13.68
2023-01-25T10:56:20.335Z,14.40
2023-01-25T10:58:54.788Z,15.23
2023-01-25T11:01:40.818Z,14.63
2023-01-25T11:04:14.424Z,14.13
2023-01-25T11:06:53.956Z,14.85
2023-01-25T11:09:45.498Z,14.00
2023-01-25T11:12:21.671Z,14.93
2023-01-25T11:14:52.938Z,15.43
2023-01-25T11:17:26.879Z,13.78
2023-01-25T11:20:20.606Z,14.53
2023-01-25T11:22:57.183Z,15.83
2023-01-25T11:25:31.726Z,17.65
2023-01-25T11:28:21.123Z,20.40
2023-01-25T11:30:54.193Z,19.55
2023-01-25T11:33:27.700Z,19.35
2023-01-25T11:36:28.212Z,18.73
2023-01-25T11:39:01.585Z,17.65
2023-01-25T11:41:37.388Z,16.40
2023-01-25T11:44:32.827Z,17.92
2023-01-25T11:47:08.741Z,17.23
2023-01-25T11:49:53.784Z,15.35
2023-01-25T11:52:32.593Z,16.85
2023-01-25T11:55:22.088Z,18.32
2023-01-25T11:58:13.187Z,17.80
2023-01-25T12:00:50.266Z,17.45
2023-01-25T12:03:36.839Z,19.37
2023-01-25T12:09:00.267Z,20.35
2023-01-25T12:12:00.992Z,19.55
2023-01-25T12:14:37.173Z,19.32
2023-01-25T12:17:21.149Z,20.00
2023-01-25T12:20:00.304Z,19.32
2023-01-25T12:23:01.383Z,20.48
2023-01-25T12:25:53.386Z,21.52
2023-01-25T12:28:26.624Z,21.77
2023-01-25T12:31:18.033Z,23.15
2023-01-25T12:33:56.722Z,25.23
2023-01-25T12:36:42.223Z,24.10
2023-01-25T12:39:18.484Z,24.60
2023-01-25T12:41:55.643Z,25.15
2023-01-25T12:44:29.128Z,26.57
2023-01-25T12:47:05.788Z,25.80
2023-01-25T12:49:42.732Z,40.03
2023-01-25T12:52:28.110Z,34.48
2023-01-25T12:55:03.879Z,48.35
2023-01-25T12:57:43.172Z,35.45
2023-01-25T13:00:32.780Z,37.03
2023-01-25T13:03:27.226Z,28.80
2023-01-25T13:06:03.629Z,30.80
2023-01-25T13:08:53.448Z,26.65
2023-01-25T13:11:44.113Z,26.68
2023-01-25T13:14:23.458Z,26.42
2023-01-25T13:17:09.732Z,24.85
2023-01-25T13:19:37.660Z,24.87
2023-01-25T13:22:08.655Z,23.73
2023-01-25T13:24:58.311Z,24.63
2023-01-25T13:27:38.163Z,24.32
2023-01-25T13:30:23.972Z,27.67
2023-01-25T13:32:57.266Z,25.80
2023-01-25T13:35:33.834Z,24.70
2023-01-25T13:38:09.722Z,22.85
2023-01-25T13:40:43.760Z,23.10
2023-01-25T13:43:24.740Z,23.15
2023-01-25T13:45:56.838Z,22.98
2023-01-25T13:48:30.189Z,24.12
2023-01-25T13:51:12.532Z,23.38
2023-01-25T13:53:44.696Z,23.00
2023-01-25T13:56:36.119Z,23.18
2023-01-25T13:59:07.344Z,23.60
2023-01-25T14:01:42.929Z,22.48
2023-01-25T14:04:14.958Z,22.50
2023-01-25T14:06:47.275Z,23.32
2023-01-25T14:09:21.476Z,23.15
2023-01-25T14:12:03.140Z,23.47
2023-01-25T14:14:38.761Z,23.27
2023-01-25T14:17:20.604Z,26.85
2023-01-25T14:19:54.307Z,28.60
2023-01-25T14:22:36.914Z,23.25
2023-01-25T14:25:16.339Z,27.15
2023-01-25T14:27:49.854Z,30.00
2023-01-25T14:30:26.419Z,29.23
2023-01-25T14:32:59.882Z,30.12
2023-01-25T14:35:53.663Z,32.17
2023-01-25T14:38:32.850Z,30.27
2023-01-25T14:41:33.840Z,31.97
2023-01-25T14:44:10.644Z,31.45
2023-01-25T14:46:42.606Z,32.93
2023-01-25T14:49:27.420Z,32.95
2023-01-25T14:52:18.725Z,30.65
2023-01-25T14:54:52.122Z,30.57
2023-01-25T14:57:28.875Z,31.23
2023-01-25T15:00:01.965Z,29.87
2023-01-25T15:02:45.695Z,27.27
2023-01-25T15:05:31.173Z,29.23
2023-01-25T15:08:15.317Z,28.35
2023-01-25T15:11:06.135Z,29.82
2023-01-25T15:13:37.003Z,28.65
2023-01-25T15:16:07.985Z,29.80
2023-01-25T15:18:53.535Z,30.77
2023-01-25T15:21:29.590Z,29.82
2023-01-25T15:24:03.726Z,31.00
2023-01-25T15:26:36.635Z,29.10
2023-01-25T15:29:24.699Z,29.82
2023-01-25T15:31:57.365Z,27.80
2023-01-25T15:34:34.553Z,29.95
2023-01-25T15:37:05.354Z,28.27
2023-01-25T15:39:36.165Z,29.20
2023-01-25T15:42:08.006Z,28.57
2023-01-25T15:44:38.814Z,28.10
2023-01-25T15:47:09.681Z,27.20
2023-01-25T15:49:40.691Z,28.30
2023-01-25T15:52:12.920Z,27.37
2023-01-25T15:54:51.751Z,30.72
2023-01-25T15:57:24.525Z,33.53
2023-01-25T15:59:56.703Z,34.35
2023-01-25T16:02:27.605Z,32.48
2023-01-25T16:04:58.514Z,34.43
2023-01-25T16:07:31.819Z,34.20
2023-01-25T16:10:02.526Z,35.00
2023-01-25T16:12:37.275Z,35.15
2023-01-25T16:15:08.752Z,34.67
2023-01-25T16:17:43.554Z,35.38
2023-01-25T16:20:21.755Z,36.35
2023-01-25T16:22:54.361Z,37.73
2023-01-25T16:25:25.359Z,38.70
2023-01-25T16:27:56.231Z,37.08
2023-01-25T16:30:29.948Z,37.85
2023-01-25T16:33:00.978Z,35.92
2023-01-25T16:35:31.710Z,35.98
2023-01-25T16:38:02.683Z,35.58
2023-01-25T16:40:39.931Z,36.28
2023-01-25T16:43:10.942Z,36.58
2023-01-25T16:45:41.851Z,37.20
2023-01-25T16:48:16.483Z,38.23
2023-01-25T16:50:47.327Z,38.25
2023-01-25T16:53:17.997Z,36.58
2023-01-25T16:55:50.190Z,35.43
2023-01-25T16:58:20.892Z,37.35
2023-01-25T17:00:58.603Z,38.60
2023-01-25T17:03:30.555Z,37.55
2023-01-25T17:06:02.019Z,38.40
2023-01-25T17:08:32.883Z,36.77
2023-01-25T17:11:10.050Z,37.25
2023-01-25T17:13:42.920Z,37.83
2023-01-25T17:16:13.139Z,37.42
2023-01-25T17:18:44.075Z,37.95
2023-01-25T17:21:20.559Z,38.00
2023-01-25T17:23:52.097Z,35.70
2023-01-25T17:26:24.569Z,34.98
2023-01-25T17:28:57.806Z,36.98
2023-01-25T17:31:31.342Z,34.18
2023-01-25T17:34:07.478Z,34.18
2023-01-25T17:36:38.153Z,34.10
2023-01-25T17:39:10.243Z,33.42
2023-01-25T17:41:41.013Z,34.80
2023-01-25T17:44:12.191Z,33.95
2023-01-25T17:46:43.237Z,34.60
2023-01-25T17:49:15.681Z,32.65
2023-01-25T17:51:46.790Z,33.38
2023-01-25T17:54:17.611Z,33.48
2023-01-25T17:56:48.605Z,33.53
2023-01-25T17:59:19.503Z,33.48
2023-01-25T18:01:51.123Z,33.00
2023-01-25T18:04:22.161Z,35.58
2023-01-25T18:06:52.920Z,34.18
2023-01-25T18:09:24.910Z,34.23
2023-01-25T18:11:55.599Z,34.40
2023-01-25T18:14:26.391Z,33.73
2023-01-25T18:16:57.189Z,35.15
2023-01-25T18:19:29.248Z,33.48
2023-01-25T18:22:00.600Z,34.53
2023-01-25T18:24:36.696Z,34.23
2023-01-25T18:27:09.750Z,32.47
2023-01-25T18:30:08.441Z,32.40
2023-01-25T18:32:39.373Z,31.27
2023-01-25T18:35:11.031Z,29.48
2023-01-25T18:37:43.356Z,29.02
2023-01-25T18:40:16.725Z,29.35
2023-01-25T18:42:47.924Z,28.92
2023-01-25T18:45:18.947Z,28.17
2023-01-25T18:47:50.348Z,27.82
2023-01-25T18:50:21.627Z,27.62
2023-01-25T18:52:52.806Z,27.42
2023-01-25T18:55:23.508Z,27.13
2023-01-25T18:57:54.213Z,26.77
2023-01-25T19:00:25.218Z,26.35
2023-01-25T19:02:55.977Z,26.82
2023-01-25T19:05:26.891Z,26.52
2023-01-25T19:07:57.688Z,27.15
2023-01-25T19:10:28.486Z,25.70
2023-01-25T19:12:59.154Z,27.05
2023-01-25T19:15:30.516Z,27.35
2023-01-25T19:18:01.993Z,26.60
2023-01-25T19:20:32.778Z,25.52
2023-01-25T19:23:03.574Z,26.82
2023-01-25T19:25:34.265Z,26.60
2023-01-25T19:28:04.934Z,27.22
2023-01-25T19:30:35.753Z,27.10
2023-01-25T19:33:06.660Z,27.22
2023-01-25T19:35:37.382Z,26.07
2023-01-25T19:38:08.576Z,27.15
2023-01-25T19:40:39.274Z,28.07
2023-01-25T19:43:13.018Z,28.12
2023-01-25T19:45:43.783Z,28.15
2023-01-25T19:48:21.044Z,27.73
2023-01-25T19:50:52.122Z,29.02
2023-01-25T19:53:22.847Z,29.10
2023-01-25T19:55:53.654Z,27.60
2023-01-25T19:58:26.851Z,28.23
2023-01-25T20:00:57.642Z,28.92
2023-01-25T20:03:28.420Z,30.20
2023-01-25T20:06:02.636Z,29.27
2023-01-25T20:08:34.229Z,28.00
2023-01-25T20:11:07.176Z,27.87
2023-01-25T20:13:37.939Z,27.82
2023-01-25T20:16:10.282Z,28.45
2023-01-25T20:18:41.552Z,28.38
2023-01-25T20:21:14.785Z,26.68
2023-01-25T20:23:46.879Z,26.90
2023-01-25T20:26:22.234Z,28.42
2023-01-25T20:28:54.556Z,28.40
2023-01-25T20:31:36.650Z,28.00
2023-01-25T20:34:18.671Z,28.23
2023-01-25T20:36:50.137Z,28.67
2023-01-25T20:39:22.554Z,29.30
2023-01-25T20:41:54.414Z,27.77
2023-01-25T20:44:25.214Z,28.07
2023-01-25T20:46:56.453Z,28.75
2023-01-25T20:49:27.160Z,28.07
2023-01-25T20:51:57.842Z,28.27
2023-01-25T20:54:28.603Z,28.67
2023-01-25T20:56:59.381Z,28.50
2023-01-25T20:59:30.067Z,28.50
2023-01-25T21:02:00.872Z,27.93
2023-01-25T21:04:31.825Z,28.25
2023-01-25T21:07:02.627Z,28.27
2023-01-25T21:09:33.399Z,29.95
2023-01-25T21:12:04.175Z,28.23
2023-01-25T21:14:34.963Z,28.00
2023-01-25T21:17:05.782Z,29.18
2023-01-25T21:19:36.454Z,27.40
2023-01-25T21:22:07.294Z,30.02
2023-01-25T21:24:38.126Z,28.92
2023-01-25T21:27:09.791Z,29.80
2023-01-25T21:29:40.479Z,28.95
2023-01-25T21:32:11.147Z,29.15
2023-01-25T21:34:41.862Z,30.02
2023-01-25T21:37:12.538Z,29.63
2023-01-25T21:39:43.332Z,30.10
2023-01-25T21:42:14.097Z,29.95
2023-01-25T21:45:02.499Z,30.27
2023-01-25T21:47:33.956Z,29.42
2023-01-25T21:50:22.439Z,30.70
2023-01-25T21:52:53.237Z,30.05
2023-01-25T21:55:23.895Z,31.35
2023-01-25T21:57:54.600Z,30.45
2023-01-25T22:00:25.639Z,30.43
2023-01-25T22:02:56.305Z,30.55
2023-01-25T22:05:27.154Z,32.80
2023-01-25T22:07:57.942Z,31.55
2023-01-25T22:10:28.627Z,33.75
2023-01-25T22:12:59.416Z,32.38
2023-01-25T22:15:30.116Z,34.23
2023-01-25T22:18:00.877Z,32.15
2023-01-25T22:20:31.724Z,33.18
2023-01-25T22:23:02.433Z,32.05
2023-01-25T22:25:33.123Z,34.53
2023-01-25T22:28:05.141Z,35.50
2023-01-25T22:30:35.859Z,35.78
2023-01-25T22:33:06.626Z,35.52
2023-01-25T22:35:37.294Z,36.80
2023-01-25T22:38:07.971Z,36.15
2023-01-25T22:40:38.611Z,36.60
2023-01-25T22:43:09.280Z,36.75
2023-01-25T22:45:40.069Z,37.55
2023-01-25T22:48:10.761Z,38.85
2023-01-25T22:50:42.291Z,38.50
2023-01-25T22:53:13.195Z,38.63
2023-01-25T22:55:44.371Z,39.80
2023-01-25T22:58:15.142Z,39.10
2023-01-25T23:00:45.809Z,39.08
2023-01-25T23:03:16.616Z,39.20
2023-01-25T23:05:50.357Z,38.88
2023-01-25T23:08:21.026Z,39.35
2023-01-25T23:10:51.821Z,39.08
2023-01-25T23:13:23.780Z,38.10
2023-01-25T23:15:54.472Z,40.12
2023-01-25T23:18:43.536Z,44.25
2023-01-25T23:21:14.203Z,39.65
2023-01-25T23:23:44.991Z,41.13
2023-01-25T23:26:16.594Z,39.20
2023-01-25T23:28:55.171Z,39.83
2023-01-25T23:31:27.267Z,40.17
2023-01-25T23:34:00.397Z,39.85
2023-01-25T23:36:33.606Z,40.78
2023-01-25T23:39:04.713Z,38.90
2023-01-25T23:41:35.816Z,38.50
2023-01-25T23:44:06.795Z,38.88
2023-01-25T23:46:37.612Z,39.25
2023-01-25T23:49:08.365Z,40.23
2023-01-25T23:51:39.788Z,39.05
2023-01-25T23:54:10.676Z,40.30
2023-01-25T23:56:41.493Z,41.42
2023-01-25T23:59:12.167Z,39.45
